Stations météo

Publicité
Siracusa, Italie (16464): Température de l'air & dewpoint: 14.08.2019 13:00:00 - 20.08.2019 13:00:00 (CEST)
Date & Time tt [°C] td [°C]
20.08.2019 13:00:00 29,3 19,9
20.08.2019 12:00:00 27,9 21,6
20.08.2019 11:00:00 27,6 20,9
20.08.2019 10:00:00 28,4 20,1
20.08.2019 09:00:00 26,8 22,2
20.08.2019 08:00:00 22,8 18,5
20.08.2019 07:00:00 21,5 17,0
20.08.2019 06:00:00 21,6 16,7
20.08.2019 05:00:00 22,9 19,0
20.08.2019 04:00:00 22,2 17,1
20.08.2019 03:00:00 22,6 16,8
20.08.2019 02:00:00 23,3 17,2
20.08.2019 01:00:00 23,7 17,4
20.08.2019 00:00:00 24,6 18,2
19.08.2019 23:00:00 26,0 18,6
19.08.2019 22:00:00 27,0 20,8
19.08.2019 21:00:00 27,5 21,2
19.08.2019 20:00:00 28,1 21,6
19.08.2019 19:00:00 28,8 20,5
19.08.2019 18:00:00 29,4 20,8
19.08.2019 17:00:00 29,9 21,0
19.08.2019 16:00:00 29,5 21,7
19.08.2019 15:00:00 29,0 22,2
19.08.2019 14:00:00 28,7 22,9
19.08.2019 13:00:00 28,5 22,2
19.08.2019 12:00:00 28,3 21,3
19.08.2019 11:00:00 28,0 22,2
19.08.2019 10:00:00 27,3 22,0
19.08.2019 09:00:00 26,4 20,9
19.08.2019 08:00:00 22,7 17,5
19.08.2019 07:00:00 21,1 16,8
19.08.2019 06:00:00 21,7 17,0
19.08.2019 05:00:00 22,0 17,5
19.08.2019 04:00:00 22,5 18,2
19.08.2019 03:00:00 22,8 17,6
19.08.2019 02:00:00 23,9 18,9
19.08.2019 01:00:00 24,7 19,9
19.08.2019 00:00:00 25,6 21,0
18.08.2019 23:00:00 26,5 22,3
18.08.2019 22:00:00 26,9 21,8
18.08.2019 21:00:00 27,3 22,2
18.08.2019 20:00:00 27,4 22,7
18.08.2019 19:00:00 27,7 22,8
18.08.2019 18:00:00 28,1 22,1
18.08.2019 17:00:00 28,2 21,4
18.08.2019 16:00:00 28,4 22,3
18.08.2019 15:00:00 28,4 22,1
18.08.2019 14:00:00 28,7 21,7
18.08.2019 13:00:00 27,6 21,3
18.08.2019 12:00:00 27,4 20,4
18.08.2019 11:00:00 27,2 21,2
18.08.2019 10:00:00 27,4 21,2
18.08.2019 09:00:00 26,9 21,8
18.08.2019 08:00:00 23,6 19,1
18.08.2019 07:00:00 21,6 17,3
18.08.2019 06:00:00 21,9 17,6
18.08.2019 05:00:00 22,2 17,9
18.08.2019 04:00:00 22,8 18,3
18.08.2019 03:00:00 23,4 18,6
18.08.2019 02:00:00 23,6 19,1
18.08.2019 01:00:00 24,2 19,2
18.08.2019 00:00:00 25,6 20,6
17.08.2019 23:00:00 26,1 21,0
17.08.2019 22:00:00 26,7 21,8
17.08.2019 21:00:00 27,0 21,7
17.08.2019 20:00:00 27,4 21,8
17.08.2019 19:00:00 28,2 21,7
17.08.2019 18:00:00 28,6 21,6
17.08.2019 17:00:00 28,8 22,3
17.08.2019 16:00:00 - -
17.08.2019 15:00:00 28,3 21,5
17.08.2019 14:00:00 28,2 21,2
17.08.2019 13:00:00 28,3 19,7
17.08.2019 12:00:00 28,8 18,5
17.08.2019 11:00:00 28,3 18,3
17.08.2019 10:00:00 27,4 18,3
17.08.2019 09:00:00 26,9 19,2
17.08.2019 08:00:00 23,4 18,9
17.08.2019 07:00:00 21,6 17,1
17.08.2019 06:00:00 21,6 17,3
17.08.2019 05:00:00 22,5 17,6
17.08.2019 04:00:00 23,2 17,4
17.08.2019 03:00:00 26,1 20,4
17.08.2019 02:00:00 26,3 20,3
17.08.2019 01:00:00 26,9 19,2
17.08.2019 00:00:00 27,2 19,7
16.08.2019 23:00:00 27,1 22,0
16.08.2019 22:00:00 27,6 22,0
16.08.2019 21:00:00 27,6 22,5
16.08.2019 20:00:00 28,5 19,9
16.08.2019 19:00:00 28,8 19,4
16.08.2019 18:00:00 29,0 19,9
16.08.2019 17:00:00 28,8 20,5
16.08.2019 16:00:00 - -
16.08.2019 15:00:00 30,1 16,8
16.08.2019 14:00:00 29,5 18,3
16.08.2019 13:00:00 28,9 18,3
16.08.2019 12:00:00 28,7 17,2
16.08.2019 11:00:00 29,2 15,7
16.08.2019 10:00:00 28,7 15,2
16.08.2019 09:00:00 25,9 19,0
16.08.2019 08:00:00 22,7 17,5
16.08.2019 07:00:00 20,9 15,8
16.08.2019 06:00:00 21,8 16,5
16.08.2019 05:00:00 21,8 16,5
16.08.2019 04:00:00 22,0 16,9
16.08.2019 03:00:00 22,8 17,6
16.08.2019 02:00:00 23,2 18,0
16.08.2019 01:00:00 23,7 18,7
16.08.2019 00:00:00 24,7 19,2
15.08.2019 23:00:00 26,2 20,5
15.08.2019 22:00:00 26,9 21,4
15.08.2019 21:00:00 27,2 21,4
15.08.2019 20:00:00 27,8 20,8
15.08.2019 19:00:00 28,5 20,5
15.08.2019 18:00:00 28,8 20,5
15.08.2019 17:00:00 29,5 20,3
15.08.2019 16:00:00 28,9 20,0
15.08.2019 15:00:00 29,1 20,5
15.08.2019 14:00:00 28,7 19,8
15.08.2019 13:00:00 29,6 17,7
15.08.2019 12:00:00 29,2 17,3
15.08.2019 11:00:00 28,2 18,0
15.08.2019 10:00:00 28,1 16,0
15.08.2019 09:00:00 27,6 16,5
15.08.2019 08:00:00 24,4 16,1
15.08.2019 07:00:00 24,7 16,3
15.08.2019 06:00:00 23,7 14,3
15.08.2019 05:00:00 26,3 16,5
15.08.2019 04:00:00 26,5 14,9
15.08.2019 03:00:00 26,1 16,3
15.08.2019 02:00:00 27,3 17,4
15.08.2019 01:00:00 27,2 21,4
15.08.2019 00:00:00 27,3 22,4
14.08.2019 23:00:00 27,6 22,5
14.08.2019 22:00:00 28,0 22,2
14.08.2019 21:00:00 28,2 22,4
14.08.2019 20:00:00 28,9 21,9
14.08.2019 19:00:00 29,6 22,0
14.08.2019 18:00:00 - -
14.08.2019 17:00:00 31,0 22,0
14.08.2019 16:00:00 31,0 20,9
14.08.2019 15:00:00 30,4 21,7
14.08.2019 14:00:00 31,4 21,8
14.08.2019 13:00:00 31,2 23,0

tt = Température de l'air
td = dewpoint

stations d'obs. à proximité